sensor_id;sensor_type;location;lat;lon;timestamp;temperature;humidity
15926;DHT22;8062;53.882;10.642;2024-02-21T00:00:04;8.60;99.90
15926;DHT22;8062;53.882;10.642;2024-02-21T00:01:25;8.60;99.90
15926;DHT22;8062;53.882;10.642;2024-02-21T00:02:44;8.60;99.90
15926;DHT22;8062;53.882;10.642;2024-02-21T00:04:03;8.60;99.90
15926;DHT22;8062;53.882;10.642;2024-02-21T00:05:23;8.60;99.90
15926;DHT22;8062;53.882;10.642;2024-02-21T00:06:43;8.60;99.90
15926;DHT22;8062;53.882;10.642;2024-02-21T00:08:03;8.60;99.90
15926;DHT22;8062;53.882;10.642;2024-02-21T00:09:22;8.60;99.90
15926;DHT22;8062;53.882;10.642;2024-02-21T00:10:42;8.60;99.90
15926;DHT22;8062;53.882;10.642;2024-02-21T00:12:01;8.70;99.90
15926;DHT22;8062;53.882;10.642;2024-02-21T00:13:21;8.70;99.90
15926;DHT22;8062;53.882;10.642;2024-02-21T00:14:40;8.70;99.90
15926;DHT22;8062;53.882;10.642;2024-02-21T00:16:00;8.60;99.90
15926;DHT22;8062;53.882;10.642;2024-02-21T00:17:20;8.70;99.90
15926;DHT22;8062;53.882;10.642;2024-02-21T00:18:40;8.70;99.90
15926;DHT22;8062;53.882;10.642;2024-02-21T00:19:59;8.70;99.90
15926;DHT22;8062;53.882;10.642;2024-02-21T00:21:19;8.70;99.90
15926;DHT22;8062;53.882;10.642;2024-02-21T00:22:38;8.70;99.90
15926;DHT22;8062;53.882;10.642;2024-02-21T00:23:58;8.60;99.90
15926;DHT22;8062;53.882;10.642;2024-02-21T00:25:17;8.70;99.90
15926;DHT22;8062;53.882;10.642;2024-02-21T00:26:37;8.70;99.90
15926;DHT22;8062;53.882;10.642;2024-02-21T00:27:56;8.60;99.90
15926;DHT22;8062;53.882;10.642;2024-02-21T00:29:15;8.60;99.90
15926;DHT22;8062;53.882;10.642;2024-02-21T00:30:35;8.70;99.90
15926;DHT22;8062;53.882;10.642;2024-02-21T00:31:57;8.70;99.90
15926;DHT22;8062;53.882;10.642;2024-02-21T00:33:17;8.70;99.90
15926;DHT22;8062;53.882;10.642;2024-02-21T00:34:36;8.70;99.90
15926;DHT22;8062;53.882;10.642;2024-02-21T00:35:56;8.70;99.90
15926;DHT22;8062;53.882;10.642;2024-02-21T00:37:15;8.70;99.90
15926;DHT22;8062;53.882;10.642;2024-02-21T00:38:35;8.70;99.90
15926;DHT22;8062;53.882;10.642;2024-02-21T00:39:54;8.70;99.90
15926;DHT22;8062;53.882;10.642;2024-02-21T00:41:14;8.70;99.90
15926;DHT22;8062;53.882;10.642;2024-02-21T00:42:33;8.80;99.90
15926;DHT22;8062;53.882;10.642;2024-02-21T00:43:53;8.80;99.90
15926;DHT22;8062;53.882;10.642;2024-02-21T00:45:12;8.80;99.90
15926;DHT22;8062;53.882;10.642;2024-02-21T00:46:32;8.80;99.90
15926;DHT22;8062;53.882;10.642;2024-02-21T00:47:51;8.80;99.90
15926;DHT22;8062;53.882;10.642;2024-02-21T00:49:11;8.80;99.90
15926;DHT22;8062;53.882;10.642;2024-02-21T00:50:31;8.80;99.90
15926;DHT22;8062;53.882;10.642;2024-02-21T00:51:50;8.90;99.90
15926;DHT22;8062;53.882;10.642;2024-02-21T00:53:10;8.90;99.90
15926;DHT22;8062;53.882;10.642;2024-02-21T00:54:29;8.90;99.90
15926;DHT22;8062;53.882;10.642;2024-02-21T00:55:48;8.90;99.90
15926;DHT22;8062;53.882;10.642;2024-02-21T00:57:08;8.90;99.90
15926;DHT22;8062;53.882;10.642;2024-02-21T00:58:27;8.90;99.90
15926;DHT22;8062;53.882;10.642;2024-02-21T00:59:47;8.90;99.90
15926;DHT22;8062;53.882;10.642;2024-02-21T01:01:07;8.90;99.90
15926;DHT22;8062;53.882;10.642;2024-02-21T01:02:26;8.90;99.90
15926;DHT22;8062;53.882;10.642;2024-02-21T01:03:46;8.90;99.90
15926;DHT22;8062;53.882;10.642;2024-02-21T01:05:06;8.90;99.90
15926;DHT22;8062;53.882;10.642;2024-02-21T01:06:26;8.90;99.90
15926;DHT22;8062;53.882;10.642;2024-02-21T01:07:45;9.00;99.90
15926;DHT22;8062;53.882;10.642;2024-02-21T01:09:05;8.90;99.90
15926;DHT22;8062;53.882;10.642;2024-02-21T01:10:24;9.00;99.90
15926;DHT22;8062;53.882;10.642;2024-02-21T01:11:44;9.00;99.90
15926;DHT22;8062;53.882;10.642;2024-02-21T01:13:03;8.90;99.90
15926;DHT22;8062;53.882;10.642;2024-02-21T01:14:22;8.90;99.90
15926;DHT22;8062;53.882;10.642;2024-02-21T01:15:42;8.90;99.90
15926;DHT22;8062;53.882;10.642;2024-02-21T01:17:01;8.90;99.90
15926;DHT22;8062;53.882;10.642;2024-02-21T01:18:21;8.90;99.90
15926;DHT22;8062;53.882;10.642;2024-02-21T01:19:40;8.90;99.90
15926;DHT22;8062;53.882;10.642;2024-02-21T01:21:00;8.90;99.90
15926;DHT22;8062;53.882;10.642;2024-02-21T01:22:20;9.00;99.90
15926;DHT22;8062;53.882;10.642;2024-02-21T01:23:40;8.90;99.90
15926;DHT22;8062;53.882;10.642;2024-02-21T01:24:59;8.90;99.90
15926;DHT22;8062;53.882;10.642;2024-02-21T01:26:19;8.90;99.90
15926;DHT22;8062;53.882;10.642;2024-02-21T01:27:38;8.80;99.90
15926;DHT22;8062;53.882;10.642;2024-02-21T01:28:58;8.80;99.90
15926;DHT22;8062;53.882;10.642;2024-02-21T01:30:17;8.80;99.90
15926;DHT22;8062;53.882;10.642;2024-02-21T01:31:37;8.70;99.90
15926;DHT22;8062;53.882;10.642;2024-02-21T01:32:56;8.70;99.90
15926;DHT22;8062;53.882;10.642;2024-02-21T01:34:16;8.80;99.90
15926;DHT22;8062;53.882;10.642;2024-02-21T01:35:36;8.70;99.90
15926;DHT22;8062;53.882;10.642;2024-02-21T01:36:56;8.70;99.90
15926;DHT22;8062;53.882;10.642;2024-02-21T01:38:15;8.70;99.90
15926;DHT22;8062;53.882;10.642;2024-02-21T01:39:35;8.70;99.90
15926;DHT22;8062;53.882;10.642;2024-02-21T01:40:55;8.60;99.90
15926;DHT22;8062;53.882;10.642;2024-02-21T01:42:15;8.60;99.90
15926;DHT22;8062;53.882;10.642;2024-02-21T01:43:34;8.60;99.90
15926;DHT22;8062;53.882;10.642;2024-02-21T01:44:54;8.60;99.90
15926;DHT22;8062;53.882;10.642;2024-02-21T01:46:14;8.60;99.90
15926;DHT22;8062;53.882;10.642;2024-02-21T01:47:34;8.60;99.90
15926;DHT22;8062;53.882;10.642;2024-02-21T01:48:55;8.60;99.90
15926;DHT22;8062;53.882;10.642;2024-02-21T01:50:16;8.50;99.90
15926;DHT22;8062;53.882;10.642;2024-02-21T01:51:36;8.50;99.90
15926;DHT22;8062;53.882;10.642;2024-02-21T01:52:56;8.50;99.90
15926;DHT22;8062;53.882;10.642;2024-02-21T01:54:16;8.60;99.90
15926;DHT22;8062;53.882;10.642;2024-02-21T01:55:36;8.60;99.90
15926;DHT22;8062;53.882;10.642;2024-02-21T01:56:56;8.60;99.90
15926;DHT22;8062;53.882;10.642;2024-02-21T01:58:17;8.60;99.90
15926;DHT22;8062;53.882;10.642;2024-02-21T01:59:38;8.60;99.90
15926;DHT22;8062;53.882;10.642;2024-02-21T02:00:58;8.50;99.90
15926;DHT22;8062;53.882;10.642;2024-02-21T02:02:18;8.50;99.90
15926;DHT22;8062;53.882;10.642;2024-02-21T02:03:38;8.50;99.90
15926;DHT22;8062;53.882;10.642;2024-02-21T02:04:57;8.50;99.90
15926;DHT22;8062;53.882;10.642;2024-02-21T02:06:17;8.50;99.90
15926;DHT22;8062;53.882;10.642;2024-02-21T02:07:36;8.50;99.90
15926;DHT22;8062;53.882;10.642;2024-02-21T02:08:56;8.50;99.90
15926;DHT22;8062;53.882;10.642;2024-02-21T02:10:16;8.50;99.90
15926;DHT22;8062;53.882;10.642;2024-02-21T02:11:36;8.50;99.90
15926;DHT22;8062;53.882;10.642;2024-02-21T02:12:55;8.50;99.90
15926;DHT22;8062;53.882;10.642;2024-02-21T02:14:15;8.50;99.90
15926;DHT22;8062;53.882;10.642;2024-02-21T02:15:42;8.50;99.90
15926;DHT22;8062;53.882;10.642;2024-02-21T02:17:01;8.50;99.90
15926;DHT22;8062;53.882;10.642;2024-02-21T02:18:21;8.50;99.90
15926;DHT22;8062;53.882;10.642;2024-02-21T02:19:40;8.50;99.90
15926;DHT22;8062;53.882;10.642;2024-02-21T02:21:00;8.50;99.90
15926;DHT22;8062;53.882;10.642;2024-02-21T02:22:22;8.50;99.90
15926;DHT22;8062;53.882;10.642;2024-02-21T02:23:44;8.50;99.90
15926;DHT22;8062;53.882;10.642;2024-02-21T02:25:04;8.50;99.90
15926;DHT22;8062;53.882;10.642;2024-02-21T02:26:24;8.50;99.90
15926;DHT22;8062;53.882;10.642;2024-02-21T02:27:43;8.50;99.90
15926;DHT22;8062;53.882;10.642;2024-02-21T02:29:04;8.50;99.90
15926;DHT22;8062;53.882;10.642;2024-02-21T02:30:23;8.50;99.90
15926;DHT22;8062;53.882;10.642;2024-02-21T02:31:43;8.50;99.90
15926;DHT22;8062;53.882;10.642;2024-02-21T02:33:06;8.50;99.90
15926;DHT22;8062;53.882;10.642;2024-02-21T02:34:25;8.50;99.90
15926;DHT22;8062;53.882;10.642;2024-02-21T02:35:45;8.50;99.90
15926;DHT22;8062;53.882;10.642;2024-02-21T02:37:05;8.50;99.90
15926;DHT22;8062;53.882;10.642;2024-02-21T02:38:24;8.50;99.90
15926;DHT22;8062;53.882;10.642;2024-02-21T02:39:44;8.50;99.90
15926;DHT22;8062;53.882;10.642;2024-02-21T02:41:03;8.50;99.90
15926;DHT22;8062;53.882;10.642;2024-02-21T02:42:23;8.50;99.90
15926;DHT22;8062;53.882;10.642;2024-02-21T02:43:42;8.50;99.90
15926;DHT22;8062;53.882;10.642;2024-02-21T02:45:02;8.60;99.90
15926;DHT22;8062;53.882;10.642;2024-02-21T02:46:22;8.50;99.90
15926;DHT22;8062;53.882;10.642;2024-02-21T02:47:41;8.50;99.90
15926;DHT22;8062;53.882;10.642;2024-02-21T02:49:01;8.50;99.90
15926;DHT22;8062;53.882;10.642;2024-02-21T02:50:20;8.50;99.90
15926;DHT22;8062;53.882;10.642;2024-02-21T02:51:43;8.50;99.90
15926;DHT22;8062;53.882;10.642;2024-02-21T02:53:03;8.50;99.90
15926;DHT22;8062;53.882;10.642;2024-02-21T02:54:23;8.50;99.90
15926;DHT22;8062;53.882;10.642;2024-02-21T02:55:42;8.50;99.90
15926;DHT22;8062;53.882;10.642;2024-02-21T02:57:02;8.50;99.90
15926;DHT22;8062;53.882;10.642;2024-02-21T02:58:23;8.50;99.90
15926;DHT22;8062;53.882;10.642;2024-02-21T02:59:50;8.60;99.90
15926;DHT22;8062;53.882;10.642;2024-02-21T03:01:10;8.60;99.90
15926;DHT22;8062;53.882;10.642;2024-02-21T03:02:30;8.60;99.90
15926;DHT22;8062;53.882;10.642;2024-02-21T03:03:50;8.60;99.90
15926;DHT22;8062;53.882;10.642;2024-02-21T03:05:15;8.60;99.90
15926;DHT22;8062;53.882;10.642;2024-02-21T03:06:35;8.60;99.90
15926;DHT22;8062;53.882;10.642;2024-02-21T03:07:54;8.60;99.90
15926;DHT22;8062;53.882;10.642;2024-02-21T03:09:14;8.60;99.90
15926;DHT22;8062;53.882;10.642;2024-02-21T03:10:35;8.60;99.90
15926;DHT22;8062;53.882;10.642;2024-02-21T03:11:54;8.60;99.90
15926;DHT22;8062;53.882;10.642;2024-02-21T03:13:16;8.60;99.90
15926;DHT22;8062;53.882;10.642;2024-02-21T03:14:35;8.70;99.90
15926;DHT22;8062;53.882;10.642;2024-02-21T03:15:55;8.60;99.90
15926;DHT22;8062;53.882;10.642;2024-02-21T03:17:15;8.70;99.90
15926;DHT22;8062;53.882;10.642;2024-02-21T03:18:34;8.70;99.90
15926;DHT22;8062;53.882;10.642;2024-02-21T03:19:54;8.70;99.90
15926;DHT22;8062;53.882;10.642;2024-02-21T03:21:15;8.70;99.90
15926;DHT22;8062;53.882;10.642;2024-02-21T03:22:34;8.70;99.90
15926;DHT22;8062;53.882;10.642;2024-02-21T03:23:54;8.70;99.90
15926;DHT22;8062;53.882;10.642;2024-02-21T03:25:13;8.70;99.90
15926;DHT22;8062;53.882;10.642;2024-02-21T03:26:34;8.70;99.90
15926;DHT22;8062;53.882;10.642;2024-02-21T03:27:54;8.70;99.90
15926;DHT22;8062;53.882;10.642;2024-02-21T03:29:14;8.80;99.90
15926;DHT22;8062;53.882;10.642;2024-02-21T03:30:34;8.80;99.90
15926;DHT22;8062;53.882;10.642;2024-02-21T03:31:53;8.80;99.90
15926;DHT22;8062;53.882;10.642;2024-02-21T03:33:13;8.80;99.90
15926;DHT22;8062;53.882;10.642;2024-02-21T03:34:32;8.80;99.90
15926;DHT22;8062;53.882;10.642;2024-02-21T03:35:52;8.80;99.90
15926;DHT22;8062;53.882;10.642;2024-02-21T03:37:11;8.90;99.90
15926;DHT22;8062;53.882;10.642;2024-02-21T03:38:32;8.90;99.90
15926;DHT22;8062;53.882;10.642;2024-02-21T03:39:52;8.90;99.90
15926;DHT22;8062;53.882;10.642;2024-02-21T03:41:12;8.90;99.90
15926;DHT22;8062;53.882;10.642;2024-02-21T03:42:31;8.90;99.90
15926;DHT22;8062;53.882;10.642;2024-02-21T03:43:51;8.90;99.90
15926;DHT22;8062;53.882;10.642;2024-02-21T03:45:10;8.90;99.90
15926;DHT22;8062;53.882;10.642;2024-02-21T03:46:30;8.90;99.90
15926;DHT22;8062;53.882;10.642;2024-02-21T03:47:51;8.90;99.90
15926;DHT22;8062;53.882;10.642;2024-02-21T03:49:10;8.90;99.90
15926;DHT22;8062;53.882;10.642;2024-02-21T03:50:31;8.90;99.90
15926;DHT22;8062;53.882;10.642;2024-02-21T03:51:50;8.90;99.90
15926;DHT22;8062;53.882;10.642;2024-02-21T03:53:10;8.90;99.90
15926;DHT22;8062;53.882;10.642;2024-02-21T03:54:29;8.90;99.90
15926;DHT22;8062;53.882;10.642;2024-02-21T03:55:49;8.80;99.90
15926;DHT22;8062;53.882;10.642;2024-02-21T03:57:08;8.80;99.90
15926;DHT22;8062;53.882;10.642;2024-02-21T03:58:28;8.80;99.90
15926;DHT22;8062;53.882;10.642;2024-02-21T03:59:51;8.80;99.90
15926;DHT22;8062;53.882;10.642;2024-02-21T04:01:11;8.90;99.90
15926;DHT22;8062;53.882;10.642;2024-02-21T04:02:31;8.90;99.90
15926;DHT22;8062;53.882;10.642;2024-02-21T04:03:51;8.80;99.90
15926;DHT22;8062;53.882;10.642;2024-02-21T04:05:10;8.80;99.90
15926;DHT22;8062;53.882;10.642;2024-02-21T04:06:30;8.80;99.90
15926;DHT22;8062;53.882;10.642;2024-02-21T04:07:49;8.80;99.90
15926;DHT22;8062;53.882;10.642;2024-02-21T04:09:10;8.80;99.90
15926;DHT22;8062;53.882;10.642;2024-02-21T04:10:30;8.90;99.90
15926;DHT22;8062;53.882;10.642;2024-02-21T04:11:49;8.80;99.90
15926;DHT22;8062;53.882;10.642;2024-02-21T04:13:09;8.80;99.90
15926;DHT22;8062;53.882;10.642;2024-02-21T04:14:29;8.80;99.90
15926;DHT22;8062;53.882;10.642;2024-02-21T04:15:48;8.80;99.90
15926;DHT22;8062;53.882;10.642;2024-02-21T04:17:08;8.80;99.90
15926;DHT22;8062;53.882;10.642;2024-02-21T04:18:27;8.80;99.90
15926;DHT22;8062;53.882;10.642;2024-02-21T04:19:47;8.80;99.90
15926;DHT22;8062;53.882;10.642;2024-02-21T04:21:07;8.80;99.90
15926;DHT22;8062;53.882;10.642;2024-02-21T04:22:26;8.80;99.90
15926;DHT22;8062;53.882;10.642;2024-02-21T04:23:46;8.90;99.90
15926;DHT22;8062;53.882;10.642;2024-02-21T04:25:05;8.90;99.90
15926;DHT22;8062;53.882;10.642;2024-02-21T04:26:25;8.90;99.90
15926;DHT22;8062;53.882;10.642;2024-02-21T04:27:45;8.90;99.90
15926;DHT22;8062;53.882;10.642;2024-02-21T04:29:04;8.90;99.90
15926;DHT22;8062;53.882;10.642;2024-02-21T04:30:23;8.90;99.90
15926;DHT22;8062;53.882;10.642;2024-02-21T04:31:43;8.90;99.90
15926;DHT22;8062;53.882;10.642;2024-02-21T04:33:03;8.90;99.90
15926;DHT22;8062;53.882;10.642;2024-02-21T04:34:23;8.90;99.90
15926;DHT22;8062;53.882;10.642;2024-02-21T04:35:42;8.90;99.90
15926;DHT22;8062;53.882;10.642;2024-02-21T04:37:02;8.90;99.90
15926;DHT22;8062;53.882;10.642;2024-02-21T04:38:21;8.90;99.90
15926;DHT22;8062;53.882;10.642;2024-02-21T04:39:41;8.90;99.90
15926;DHT22;8062;53.882;10.642;2024-02-21T04:41:00;8.90;99.90
15926;DHT22;8062;53.882;10.642;2024-02-21T04:42:20;8.90;99.90
15926;DHT22;8062;53.882;10.642;2024-02-21T04:43:39;8.90;99.90
15926;DHT22;8062;53.882;10.642;2024-02-21T04:45:00;8.90;99.90
15926;DHT22;8062;53.882;10.642;2024-02-21T04:46:19;8.90;99.90
15926;DHT22;8062;53.882;10.642;2024-02-21T04:47:39;8.90;99.90
15926;DHT22;8062;53.882;10.642;2024-02-21T04:48:58;8.90;99.90
15926;DHT22;8062;53.882;10.642;2024-02-21T04:50:18;8.90;99.90
15926;DHT22;8062;53.882;10.642;2024-02-21T04:51:37;8.90;99.90
15926;DHT22;8062;53.882;10.642;2024-02-21T04:52:58;8.90;99.90
15926;DHT22;8062;53.882;10.642;2024-02-21T04:54:18;8.90;99.90
15926;DHT22;8062;53.882;10.642;2024-02-21T04:55:37;8.90;99.90
15926;DHT22;8062;53.882;10.642;2024-02-21T04:56:57;8.90;99.90
15926;DHT22;8062;53.882;10.642;2024-02-21T04:58:16;8.90;99.90
15926;DHT22;8062;53.882;10.642;2024-02-21T04:59:36;8.90;99.90
15926;DHT22;8062;53.882;10.642;2024-02-21T05:00:56;8.90;99.90
15926;DHT22;8062;53.882;10.642;2024-02-21T05:02:16;8.90;99.90
15926;DHT22;8062;53.882;10.642;2024-02-21T05:03:36;8.90;99.90
15926;DHT22;8062;53.882;10.642;2024-02-21T05:04:55;8.90;99.90
15926;DHT22;8062;53.882;10.642;2024-02-21T05:06:15;8.90;99.90
15926;DHT22;8062;53.882;10.642;2024-02-21T05:07:35;8.90;99.90
15926;DHT22;8062;53.882;10.642;2024-02-21T05:08:54;8.90;99.90
15926;DHT22;8062;53.882;10.642;2024-02-21T05:10:14;8.90;99.90
15926;DHT22;8062;53.882;10.642;2024-02-21T05:11:34;8.90;99.90
15926;DHT22;8062;53.882;10.642;2024-02-21T05:12:54;8.90;99.90
15926;DHT22;8062;53.882;10.642;2024-02-21T05:14:14;8.90;99.90
15926;DHT22;8062;53.882;10.642;2024-02-21T05:15:33;8.90;99.90
15926;DHT22;8062;53.882;10.642;2024-02-21T05:16:53;8.90;99.90
15926;DHT22;8062;53.882;10.642;2024-02-21T05:18:13;8.90;99.90
15926;DHT22;8062;53.882;10.642;2024-02-21T05:19:33;8.90;99.90
15926;DHT22;8062;53.882;10.642;2024-02-21T05:20:52;8.90;99.90
15926;DHT22;8062;53.882;10.642;2024-02-21T05:22:12;8.90;99.90
15926;DHT22;8062;53.882;10.642;2024-02-21T05:23:31;8.90;99.90
15926;DHT22;8062;53.882;10.642;2024-02-21T05:24:51;8.90;99.90
15926;DHT22;8062;53.882;10.642;2024-02-21T05:26:10;8.90;99.90
15926;DHT22;8062;53.882;10.642;2024-02-21T05:27:30;8.90;99.90
15926;DHT22;8062;53.882;10.642;2024-02-21T05:28:49;8.90;99.90
15926;DHT22;8062;53.882;10.642;2024-02-21T05:30:09;8.90;99.90
15926;DHT22;8062;53.882;10.642;2024-02-21T05:33:10;8.90;99.90
15926;DHT22;8062;53.882;10.642;2024-02-21T05:34:29;8.90;99.90
15926;DHT22;8062;53.882;10.642;2024-02-21T05:35:49;8.90;99.90
15926;DHT22;8062;53.882;10.642;2024-02-21T05:37:09;8.90;99.90
15926;DHT22;8062;53.882;10.642;2024-02-21T05:38:28;8.90;99.90
15926;DHT22;8062;53.882;10.642;2024-02-21T05:39:48;8.90;99.90
15926;DHT22;8062;53.882;10.642;2024-02-21T05:41:08;8.90;99.90
15926;DHT22;8062;53.882;10.642;2024-02-21T05:42:28;8.90;99.90
15926;DHT22;8062;53.882;10.642;2024-02-21T05:43:47;9.00;99.90
15926;DHT22;8062;53.882;10.642;2024-02-21T05:45:07;8.90;99.90
15926;DHT22;8062;53.882;10.642;2024-02-21T05:46:27;8.90;99.90
15926;DHT22;8062;53.882;10.642;2024-02-21T05:47:47;9.00;99.90
15926;DHT22;8062;53.882;10.642;2024-02-21T05:49:06;8.90;99.90
15926;DHT22;8062;53.882;10.642;2024-02-21T05:50:26;8.90;99.90
15926;DHT22;8062;53.882;10.642;2024-02-21T05:51:47;8.90;99.90
15926;DHT22;8062;53.882;10.642;2024-02-21T05:53:06;8.90;99.90
15926;DHT22;8062;53.882;10.642;2024-02-21T05:54:26;8.80;99.90
15926;DHT22;8062;53.882;10.642;2024-02-21T05:55:45;8.70;99.90
15926;DHT22;8062;53.882;10.642;2024-02-21T05:57:05;8.60;99.90
15926;DHT22;8062;53.882;10.642;2024-02-21T05:58:24;8.50;99.90
15926;DHT22;8062;53.882;10.642;2024-02-21T05:59:44;8.40;99.90
15926;DHT22;8062;53.882;10.642;2024-02-21T06:01:03;8.40;99.90
15926;DHT22;8062;53.882;10.642;2024-02-21T06:02:24;8.40;99.90
15926;DHT22;8062;53.882;10.642;2024-02-21T06:03:44;8.40;99.90
15926;DHT22;8062;53.882;10.642;2024-02-21T06:05:03;8.40;99.90
15926;DHT22;8062;53.882;10.642;2024-02-21T06:06:26;8.40;99.90
15926;DHT22;8062;53.882;10.642;2024-02-21T06:07:46;8.40;99.90
15926;DHT22;8062;53.882;10.642;2024-02-21T06:09:05;8.40;99.90
15926;DHT22;8062;53.882;10.642;2024-02-21T06:10:25;8.40;99.90
15926;DHT22;8062;53.882;10.642;2024-02-21T06:11:44;8.40;99.90
15926;DHT22;8062;53.882;10.642;2024-02-21T06:13:05;8.40;99.90
15926;DHT22;8062;53.882;10.642;2024-02-21T06:14:25;8.40;99.90
15926;DHT22;8062;53.882;10.642;2024-02-21T06:15:44;8.40;99.90
15926;DHT22;8062;53.882;10.642;2024-02-21T06:17:03;8.40;99.90
15926;DHT22;8062;53.882;10.642;2024-02-21T06:18:23;8.40;99.90
15926;DHT22;8062;53.882;10.642;2024-02-21T06:19:43;8.40;99.90
15926;DHT22;8062;53.882;10.642;2024-02-21T06:21:04;8.40;99.90
15926;DHT22;8062;53.882;10.642;2024-02-21T06:22:23;8.40;99.90
15926;DHT22;8062;53.882;10.642;2024-02-21T06:23:43;8.40;99.90
15926;DHT22;8062;53.882;10.642;2024-02-21T06:25:02;8.30;99.90
15926;DHT22;8062;53.882;10.642;2024-02-21T06:26:22;8.30;99.90
15926;DHT22;8062;53.882;10.642;2024-02-21T06:27:42;8.30;99.90
15926;DHT22;8062;53.882;10.642;2024-02-21T06:29:01;8.40;99.90
15926;DHT22;8062;53.882;10.642;2024-02-21T06:30:20;8.30;99.90
15926;DHT22;8062;53.882;10.642;2024-02-21T06:31:40;8.30;99.90
15926;DHT22;8062;53.882;10.642;2024-02-21T06:33:00;8.30;99.90
15926;DHT22;8062;53.882;10.642;2024-02-21T06:34:19;8.30;99.90
15926;DHT22;8062;53.882;10.642;2024-02-21T06:35:39;8.30;99.90
15926;DHT22;8062;53.882;10.642;2024-02-21T06:37:01;8.30;99.90
15926;DHT22;8062;53.882;10.642;2024-02-21T06:38:20;8.30;99.90
15926;DHT22;8062;53.882;10.642;2024-02-21T06:39:40;8.30;99.90
15926;DHT22;8062;53.882;10.642;2024-02-21T06:41:00;8.30;99.90
15926;DHT22;8062;53.882;10.642;2024-02-21T06:42:21;8.30;99.90
15926;DHT22;8062;53.882;10.642;2024-02-21T06:43:43;8.30;99.90
15926;DHT22;8062;53.882;10.642;2024-02-21T06:45:03;8.20;99.90
15926;DHT22;8062;53.882;10.642;2024-02-21T06:46:24;8.30;99.90
15926;DHT22;8062;53.882;10.642;2024-02-21T06:47:44;8.30;99.90
15926;DHT22;8062;53.882;10.642;2024-02-21T06:49:03;8.30;99.90
15926;DHT22;8062;53.882;10.642;2024-02-21T06:50:23;8.30;99.90
15926;DHT22;8062;53.882;10.642;2024-02-21T06:51:43;8.20;99.90
15926;DHT22;8062;53.882;10.642;2024-02-21T06:53:02;8.30;99.90
15926;DHT22;8062;53.882;10.642;2024-02-21T06:54:22;8.30;99.90
15926;DHT22;8062;53.882;10.642;2024-02-21T06:55:43;8.30;99.90
15926;DHT22;8062;53.882;10.642;2024-02-21T06:57:02;8.30;99.90
15926;DHT22;8062;53.882;10.642;2024-02-21T06:58:22;8.30;99.90
15926;DHT22;8062;53.882;10.642;2024-02-21T06:59:42;8.30;99.90
15926;DHT22;8062;53.882;10.642;2024-02-21T07:01:02;8.20;99.90
15926;DHT22;8062;53.882;10.642;2024-02-21T07:02:21;8.20;99.90
15926;DHT22;8062;53.882;10.642;2024-02-21T07:03:41;8.20;99.90
15926;DHT22;8062;53.882;10.642;2024-02-21T07:05:00;8.20;99.90
15926;DHT22;8062;53.882;10.642;2024-02-21T07:06:19;8.20;99.90
15926;DHT22;8062;53.882;10.642;2024-02-21T07:07:39;8.20;99.90
15926;DHT22;8062;53.882;10.642;2024-02-21T07:08:59;8.20;99.90
15926;DHT22;8062;53.882;10.642;2024-02-21T07:10:19;8.20;99.90
15926;DHT22;8062;53.882;10.642;2024-02-21T07:11:38;8.30;99.90
15926;DHT22;8062;53.882;10.642;2024-02-21T07:12:58;8.30;99.90
15926;DHT22;8062;53.882;10.642;2024-02-21T07:14:18;8.30;99.90
15926;DHT22;8062;53.882;10.642;2024-02-21T07:15:38;8.30;99.90
15926;DHT22;8062;53.882;10.642;2024-02-21T07:16:57;8.30;99.90
15926;DHT22;8062;53.882;10.642;2024-02-21T07:18:16;8.40;99.90
15926;DHT22;8062;53.882;10.642;2024-02-21T07:19:36;8.40;99.90
15926;DHT22;8062;53.882;10.642;2024-02-21T07:20:55;8.40;99.90
15926;DHT22;8062;53.882;10.642;2024-02-21T07:22:15;8.40;99.90
15926;DHT22;8062;53.882;10.642;2024-02-21T07:23:34;8.40;99.90
15926;DHT22;8062;53.882;10.642;2024-02-21T07:24:54;8.40;99.90
15926;DHT22;8062;53.882;10.642;2024-02-21T07:26:13;8.40;99.90
15926;DHT22;8062;53.882;10.642;2024-02-21T07:27:33;8.40;99.90
15926;DHT22;8062;53.882;10.642;2024-02-21T07:28:53;8.40;99.90
15926;DHT22;8062;53.882;10.642;2024-02-21T07:30:12;8.40;99.90
15926;DHT22;8062;53.882;10.642;2024-02-21T07:31:42;8.40;99.90
15926;DHT22;8062;53.882;10.642;2024-02-21T07:33:02;8.50;99.90
15926;DHT22;8062;53.882;10.642;2024-02-21T07:34:22;8.50;99.90
15926;DHT22;8062;53.882;10.642;2024-02-21T07:35:41;8.60;99.90
15926;DHT22;8062;53.882;10.642;2024-02-21T07:37:03;8.50;99.90
15926;DHT22;8062;53.882;10.642;2024-02-21T07:38:23;8.50;99.90
15926;DHT22;8062;53.882;10.642;2024-02-21T07:39:43;8.50;99.90
15926;DHT22;8062;53.882;10.642;2024-02-21T07:41:02;8.50;99.90
15926;DHT22;8062;53.882;10.642;2024-02-21T07:42:23;8.50;99.90
15926;DHT22;8062;53.882;10.642;2024-02-21T07:43:42;8.50;99.90
15926;DHT22;8062;53.882;10.642;2024-02-21T07:45:02;8.50;99.90
15926;DHT22;8062;53.882;10.642;2024-02-21T07:46:22;8.50;99.90
15926;DHT22;8062;53.882;10.642;2024-02-21T07:47:41;8.50;99.90
15926;DHT22;8062;53.882;10.642;2024-02-21T07:49:01;8.50;99.90
15926;DHT22;8062;53.882;10.642;2024-02-21T07:50:21;8.50;99.90
15926;DHT22;8062;53.882;10.642;2024-02-21T07:51:41;8.50;99.90
15926;DHT22;8062;53.882;10.642;2024-02-21T07:53:01;8.60;99.90
15926;DHT22;8062;53.882;10.642;2024-02-21T07:54:21;8.60;99.90
15926;DHT22;8062;53.882;10.642;2024-02-21T07:55:41;8.60;99.90
15926;DHT22;8062;53.882;10.642;2024-02-21T07:57:00;8.60;99.90
15926;DHT22;8062;53.882;10.642;2024-02-21T07:58:20;8.60;99.90
15926;DHT22;8062;53.882;10.642;2024-02-21T07:59:39;8.60;99.90
15926;DHT22;8062;53.882;10.642;2024-02-21T08:00:59;8.60;99.90
15926;DHT22;8062;53.882;10.642;2024-02-21T08:02:18;8.60;99.90
15926;DHT22;8062;53.882;10.642;2024-02-21T08:03:38;8.70;99.90
15926;DHT22;8062;53.882;10.642;2024-02-21T08:04:58;8.70;99.90
15926;DHT22;8062;53.882;10.642;2024-02-21T08:06:17;8.70;99.90
15926;DHT22;8062;53.882;10.642;2024-02-21T08:07:37;8.70;99.90
15926;DHT22;8062;53.882;10.642;2024-02-21T08:08:56;8.70;99.90
15926;DHT22;8062;53.882;10.642;2024-02-21T08:10:16;8.70;99.90
15926;DHT22;8062;53.882;10.642;2024-02-21T08:11:36;8.70;99.90
15926;DHT22;8062;53.882;10.642;2024-02-21T08:12:55;8.70;99.90
15926;DHT22;8062;53.882;10.642;2024-02-21T08:14:14;8.80;99.90
15926;DHT22;8062;53.882;10.642;2024-02-21T08:15:35;8.90;99.90
15926;DHT22;8062;53.882;10.642;2024-02-21T08:16:54;8.90;99.90
15926;DHT22;8062;53.882;10.642;2024-02-21T08:18:14;8.90;99.90
15926;DHT22;8062;53.882;10.642;2024-02-21T08:19:34;8.90;99.90
15926;DHT22;8062;53.882;10.642;2024-02-21T08:20:54;8.90;99.90
15926;DHT22;8062;53.882;10.642;2024-02-21T08:22:13;9.00;99.90
15926;DHT22;8062;53.882;10.642;2024-02-21T08:23:33;8.90;99.90
15926;DHT22;8062;53.882;10.642;2024-02-21T08:24:52;9.00;99.90
15926;DHT22;8062;53.882;10.642;2024-02-21T08:26:12;9.10;99.90
15926;DHT22;8062;53.882;10.642;2024-02-21T08:27:31;9.10;99.90
15926;DHT22;8062;53.882;10.642;2024-02-21T08:28:50;9.10;99.90
15926;DHT22;8062;53.882;10.642;2024-02-21T08:30:11;9.10;99.90
15926;DHT22;8062;53.882;10.642;2024-02-21T08:31:30;9.20;99.90
15926;DHT22;8062;53.882;10.642;2024-02-21T08:32:53;9.30;99.90